createdAt,value
2019-02-11T00:00:18.328Z,12.20
2019-02-11T00:02:46.735Z,12.00
2019-02-11T00:05:15.480Z,12.20
2019-02-11T00:07:45.717Z,11.90
2019-02-11T00:10:14.129Z,11.50
2019-02-11T00:12:42.536Z,11.40
2019-02-11T00:15:10.956Z,11.40
2019-02-11T00:17:39.492Z,11.50
2019-02-11T00:20:08.027Z,11.60
2019-02-11T00:22:36.679Z,11.20
2019-02-11T00:25:05.877Z,11.40
2019-02-11T00:27:35.808Z,11.60
2019-02-11T00:30:06.781Z,11.10
2019-02-11T00:32:35.426Z,10.60
2019-02-11T00:35:04.000Z,11.40
2019-02-11T00:37:32.412Z,11.90
2019-02-11T00:40:01.322Z,11.60
2019-02-11T00:42:29.804Z,11.00
2019-02-11T00:44:58.211Z,11.90
2019-02-11T00:47:29.861Z,11.90
2019-02-11T00:49:58.432Z,11.60
2019-02-11T00:52:26.842Z,12.40
2019-02-11T00:54:55.252Z,11.30
2019-02-11T00:57:23.652Z,11.70
2019-02-11T00:59:52.082Z,11.20
2019-02-11T01:02:20.480Z,11.50
2019-02-11T01:04:49.065Z,11.40
2019-02-11T01:07:17.520Z,11.50
2019-02-11T01:09:46.121Z,11.30
2019-02-11T01:12:14.580Z,10.70
2019-02-11T01:14:42.991Z,10.50
2019-02-11T01:17:11.446Z,10.80
2019-02-11T01:19:39.879Z,10.80
2019-02-11T01:22:08.299Z,11.10
2019-02-11T01:24:36.704Z,10.40
2019-02-11T01:27:05.178Z,10.30
2019-02-11T01:29:33.576Z,11.10
2019-02-11T01:32:02.020Z,10.90
2019-02-11T01:34:30.428Z,11.20
2019-02-11T01:36:58.922Z,10.70
2019-02-11T01:39:27.331Z,10.90
2019-02-11T01:41:55.760Z,11.40
2019-02-11T01:44:24.237Z,10.80
2019-02-11T01:46:52.680Z,11.40
2019-02-11T01:49:21.351Z,11.80
2019-02-11T01:51:50.032Z,11.70
2019-02-11T01:54:18.450Z,11.60
2019-02-11T01:56:46.956Z,12.10
2019-02-11T01:59:15.388Z,11.90
2019-02-11T02:01:43.811Z,11.80
2019-02-11T02:04:12.239Z,10.70
2019-02-11T02:06:40.644Z,10.50
2019-02-11T02:09:09.077Z,10.30
2019-02-11T02:11:37.526Z,10.20
2019-02-11T02:14:05.980Z,11.30
2019-02-11T02:16:34.657Z,11.90
2019-02-11T02:19:03.389Z,11.70
2019-02-11T02:21:31.798Z,11.40
2019-02-11T02:24:00.224Z,11.30
2019-02-11T02:26:28.622Z,12.70
2019-02-11T02:28:57.226Z,11.30
2019-02-11T02:31:25.924Z,12.20
2019-02-11T02:33:54.413Z,11.90
2019-02-11T02:36:22.808Z,11.70
2019-02-11T02:38:51.219Z,12.00
2019-02-11T02:41:19.646Z,11.70
2019-02-11T02:43:55.194Z,11.60
2019-02-11T02:46:18.214Z,12.20
2019-02-11T02:48:46.657Z,12.50
2019-02-11T02:51:15.077Z,12.30
2019-02-11T02:53:43.513Z,12.30
2019-02-11T02:56:11.922Z,11.60
2019-02-11T02:58:40.604Z,10.50
2019-02-11T03:01:09.006Z,11.30
2019-02-11T03:03:37.495Z,11.60
2019-02-11T03:06:06.175Z,10.90
2019-02-11T03:08:34.857Z,11.00
2019-02-11T03:11:03.266Z,11.20
2019-02-11T03:13:31.928Z,11.00
2019-02-11T03:16:00.352Z,11.10
2019-02-11T03:18:29.051Z,11.80
2019-02-11T03:20:57.476Z,11.70
2019-02-11T03:23:25.892Z,12.50
2019-02-11T03:25:54.399Z,12.40
2019-02-11T03:28:22.816Z,12.20
2019-02-11T03:30:51.235Z,11.10
2019-02-11T03:33:19.638Z,11.10
2019-02-11T03:35:48.066Z,10.40
2019-02-11T03:38:16.480Z,10.50
2019-02-11T03:40:44.973Z,10.40
2019-02-11T03:43:13.441Z,10.80
2019-02-11T03:45:41.865Z,11.80
2019-02-11T03:48:10.301Z,11.80
2019-02-11T03:50:38.970Z,11.30
2019-02-11T03:53:07.413Z,10.90
2019-02-11T03:55:35.846Z,11.60
2019-02-11T03:58:04.312Z,11.30
2019-02-11T04:00:32.733Z,11.60
2019-02-11T04:03:01.214Z,12.30
2019-02-11T04:05:29.636Z,12.00
2019-02-11T04:07:58.125Z,11.90
2019-02-11T04:10:26.535Z,10.70
2019-02-11T04:12:54.952Z,10.40
2019-02-11T04:15:23.434Z,11.80
2019-02-11T04:17:51.852Z,12.40
2019-02-11T04:20:20.515Z,12.30
2019-02-11T04:22:48.932Z,11.50
2019-02-11T04:25:17.377Z,11.50
2019-02-11T04:27:45.825Z,12.40
2019-02-11T04:30:14.342Z,12.40
2019-02-11T04:32:42.757Z,11.30
2019-02-11T04:35:12.776Z,11.60
2019-02-11T04:37:41.269Z,11.90
2019-02-11T04:40:11.214Z,11.20
2019-02-11T04:42:39.617Z,10.50
2019-02-11T04:45:09.580Z,11.80
2019-02-11T04:47:38.051Z,11.10
2019-02-11T04:50:08.763Z,11.00
2019-02-11T04:52:37.585Z,11.00
2019-02-11T04:55:08.342Z,11.00
2019-02-11T04:57:36.844Z,10.80
2019-02-11T05:00:10.796Z,10.10
2019-02-11T05:02:39.489Z,10.80
2019-02-11T05:05:09.543Z,10.90
2019-02-11T05:07:37.976Z,11.60
2019-02-11T05:10:12.274Z,11.20
2019-02-11T05:12:40.695Z,11.10
2019-02-11T05:15:11.157Z,10.90
2019-02-11T05:17:39.594Z,11.00
2019-02-11T05:20:10.049Z,11.80
2019-02-11T05:22:38.528Z,11.50
2019-02-11T05:25:08.253Z,10.70
2019-02-11T05:27:36.681Z,10.90
2019-02-11T05:30:10.377Z,10.40
2019-02-11T05:32:38.844Z,10.40
2019-02-11T05:35:07.776Z,11.50
2019-02-11T05:37:36.440Z,11.90
2019-02-11T05:40:08.003Z,11.80
2019-02-11T05:42:36.392Z,11.60
2019-02-11T05:45:06.846Z,11.00
2019-02-11T05:47:35.304Z,12.10
2019-02-11T05:50:05.487Z,12.10
2019-02-11T05:52:33.905Z,11.90
2019-02-11T05:55:02.423Z,12.50
2019-02-11T05:57:30.894Z,12.90
2019-02-11T05:59:59.307Z,12.90
2019-02-11T06:02:27.864Z,12.50
2019-02-11T06:04:56.308Z,12.30
2019-02-11T06:07:24.733Z,12.70
2019-02-11T06:09:53.144Z,11.80
2019-02-11T06:12:21.560Z,12.20
2019-02-11T06:14:49.994Z,12.00
2019-02-11T06:17:18.412Z,11.20
2019-02-11T06:19:46.880Z,11.40
2019-02-11T06:22:15.438Z,11.00
2019-02-11T06:24:43.848Z,11.50
2019-02-11T06:27:12.334Z,11.00
2019-02-11T06:29:40.778Z,11.20
2019-02-11T06:32:09.190Z,11.90
2019-02-11T06:34:37.888Z,11.90
2019-02-11T06:37:06.455Z,11.70
2019-02-11T06:39:35.176Z,11.80
2019-02-11T06:42:03.625Z,11.80
2019-02-11T06:44:32.164Z,11.70
2019-02-11T06:47:00.599Z,12.10
2019-02-11T06:49:28.986Z,11.30
2019-02-11T06:51:57.434Z,11.60
2019-02-11T06:54:25.868Z,12.90
2019-02-11T06:56:54.312Z,13.20
2019-02-11T06:59:22.721Z,12.50
2019-02-11T07:01:51.165Z,12.00
2019-02-11T07:04:19.591Z,12.00
2019-02-11T07:06:47.995Z,11.20
2019-02-11T07:09:16.436Z,11.80
2019-02-11T07:11:44.850Z,11.50
2019-02-11T07:14:13.269Z,10.40
2019-02-11T07:16:41.697Z,10.80
2019-02-11T07:19:10.288Z,11.40
2019-02-11T07:21:38.943Z,10.70
2019-02-11T07:24:07.360Z,10.70
2019-02-11T07:26:35.789Z,11.30
2019-02-11T07:29:04.191Z,11.40
2019-02-11T07:31:32.621Z,11.80
2019-02-11T07:34:01.056Z,12.40
2019-02-11T07:36:29.483Z,12.90
2019-02-11T07:38:58.125Z,12.90
2019-02-11T07:41:28.180Z,12.90
2019-02-11T07:43:58.237Z,12.20
2019-02-11T07:46:28.304Z,12.10
2019-02-11T07:48:56.775Z,12.50
2019-02-11T07:51:25.196Z,11.30
2019-02-11T07:53:53.620Z,11.50
2019-02-11T07:56:22.031Z,11.10
2019-02-11T07:58:50.708Z,11.50
2019-02-11T08:01:19.408Z,10.80
2019-02-11T08:03:47.833Z,11.60
2019-02-11T08:06:16.238Z,12.20
2019-02-11T08:08:44.677Z,12.70
2019-02-11T08:11:13.096Z,12.20
2019-02-11T08:13:41.585Z,12.50
2019-02-11T08:16:10.337Z,12.70
2019-02-11T08:18:38.972Z,12.30
2019-02-11T08:21:07.399Z,12.50
2019-02-11T08:23:35.842Z,12.70
2019-02-11T08:26:06.097Z,12.60
2019-02-11T08:28:34.653Z,12.60
2019-02-11T08:31:03.051Z,11.70
2019-02-11T08:33:31.723Z,11.60
2019-02-11T08:36:00.133Z,11.90
2019-02-11T08:38:28.538Z,11.60
2019-02-11T08:40:57.200Z,11.80
2019-02-11T08:43:25.629Z,12.30
2019-02-11T08:45:54.050Z,12.10
2019-02-11T08:48:22.792Z,11.70
2019-02-11T08:50:51.280Z,12.40
2019-02-11T08:53:19.717Z,12.10
2019-02-11T08:55:48.141Z,12.00
2019-02-11T08:58:16.547Z,12.40
2019-02-11T09:00:44.953Z,12.70
2019-02-11T09:03:13.398Z,12.90
2019-02-11T09:05:42.120Z,12.40
2019-02-11T09:08:10.889Z,13.00
2019-02-11T09:10:39.544Z,13.20
2019-02-11T09:13:07.977Z,13.60
2019-02-11T09:15:36.404Z,12.80
2019-02-11T09:18:04.960Z,13.40
2019-02-11T09:20:33.397Z,13.50
2019-02-11T09:23:01.827Z,13.10
2019-02-11T09:25:30.240Z,12.70
2019-02-11T09:27:58.673Z,12.80
2019-02-11T09:30:27.149Z,13.10
2019-02-11T09:32:55.594Z,13.00
2019-02-11T09:35:24.289Z,13.30
2019-02-11T09:37:52.712Z,12.80
2019-02-11T09:40:21.127Z,12.90
2019-02-11T09:42:49.587Z,12.30
2019-02-11T09:45:27.760Z,12.10
2019-02-11T09:47:56.485Z,12.40
2019-02-11T09:50:34.122Z,13.20
2019-02-11T09:53:03.466Z,12.40
2019-02-11T09:55:33.546Z,13.70
2019-02-11T09:58:01.945Z,13.70
2019-02-11T10:00:30.387Z,14.10
2019-02-11T10:02:58.768Z,13.60
2019-02-11T10:05:27.179Z,13.50
2019-02-11T10:07:56.678Z,13.50
2019-02-11T10:10:25.137Z,13.90
2019-02-11T10:12:53.585Z,13.40
2019-02-11T10:15:22.286Z,12.90
2019-02-11T10:17:50.708Z,12.60
2019-02-11T10:20:19.125Z,13.40
2019-02-11T10:22:47.528Z,13.70
2019-02-11T10:25:27.596Z,13.50
2019-02-11T10:27:58.948Z,13.50
2019-02-11T10:30:27.685Z,12.80
2019-02-11T10:32:56.075Z,13.10
2019-02-11T10:35:26.523Z,13.50
2019-02-11T10:37:55.163Z,13.00
2019-02-11T10:40:23.573Z,13.20
2019-02-11T10:42:52.017Z,13.70
2019-02-11T10:45:20.403Z,12.80
2019-02-11T10:47:49.007Z,12.80
2019-02-11T10:50:18.458Z,12.80
2019-02-11T10:52:46.941Z,13.40
2019-02-11T10:55:17.340Z,13.60
2019-02-11T10:57:45.825Z,13.70
2019-02-11T11:00:19.829Z,13.80
2019-02-11T11:02:48.264Z,13.40
2019-02-11T11:05:16.741Z,13.10
2019-02-11T11:07:45.510Z,12.90
2019-02-11T11:10:22.689Z,13.30
2019-02-11T11:12:51.147Z,13.60
2019-02-11T11:15:20.038Z,13.70
2019-02-11T11:17:48.451Z,13.30
2019-02-11T11:20:18.375Z,13.40
2019-02-11T11:22:47.076Z,13.80
2019-02-11T11:25:17.405Z,13.90
2019-02-11T11:27:45.928Z,13.90
2019-02-11T11:30:16.424Z,13.70
2019-02-11T11:32:45.479Z,13.00
2019-02-11T11:35:15.462Z,13.40
2019-02-11T11:37:43.961Z,14.10
2019-02-11T11:40:19.780Z,14.30
2019-02-11T11:42:48.200Z,14.10
2019-02-11T11:45:19.119Z,14.10
2019-02-11T11:47:47.615Z,14.10
2019-02-11T11:50:17.148Z,14.30
2019-02-11T11:52:45.675Z,14.20
2019-02-11T11:55:20.032Z,14.40
2019-02-11T11:57:48.487Z,14.10
2019-02-11T12:00:20.452Z,14.30
2019-02-11T12:03:00.625Z,14.20
2019-02-11T12:05:19.703Z,13.60
2019-02-11T12:07:48.356Z,13.70
2019-02-11T12:10:16.761Z,14.30
2019-02-11T12:12:45.207Z,14.10
2019-02-11T12:15:16.433Z,14.10
2019-02-11T12:17:46.249Z,13.60
2019-02-11T12:20:15.851Z,14.10
2019-02-11T12:22:44.302Z,14.10
2019-02-11T12:25:14.765Z,14.50
2019-02-11T12:27:43.185Z,14.50
2019-02-11T12:30:14.134Z,14.50
2019-02-11T12:32:42.546Z,14.60
2019-02-11T12:35:12.812Z,14.40
2019-02-11T12:37:42.762Z,13.70
2019-02-11T12:40:11.914Z,14.30
2019-02-11T12:42:40.385Z,14.30
2019-02-11T12:45:11.400Z,14.10
2019-02-11T12:47:40.078Z,14.20
2019-02-11T12:50:11.297Z,14.00
2019-02-11T12:52:39.711Z,14.40
2019-02-11T12:55:10.289Z,14.30
2019-02-11T12:57:38.729Z,14.40
2019-02-11T13:00:17.248Z,14.60
2019-02-11T13:02:46.671Z,14.50
2019-02-11T13:05:15.266Z,14.60
2019-02-11T13:07:44.124Z,14.50
2019-02-11T13:10:17.959Z,14.10
2019-02-11T13:12:46.369Z,14.00
2019-02-11T13:15:41.743Z,14.00
2019-02-11T13:17:46.037Z,14.10
2019-02-11T13:20:16.789Z,14.50
2019-02-11T13:22:45.227Z,14.50
2019-02-11T13:25:16.017Z,14.60
2019-02-11T13:27:46.104Z,14.00
2019-02-11T13:30:25.078Z,14.40
2019-02-11T13:33:04.117Z,14.60
2019-02-11T13:35:26.725Z,14.60
2019-02-11T13:37:56.237Z,14.40
2019-02-11T13:40:26.454Z,14.30
2019-02-11T13:42:54.970Z,14.40
2019-02-11T13:45:23.473Z,14.60
2019-02-11T13:47:57.006Z,14.60
2019-02-11T13:50:28.319Z,14.50
2019-02-11T13:52:57.548Z,14.50
2019-02-11T13:55:30.179Z,14.30
2019-02-11T13:57:59.090Z,14.50
2019-02-11T14:00:34.716Z,14.60
2019-02-11T14:03:05.328Z,14.20
2019-02-11T14:05:34.132Z,14.40
2019-02-11T14:08:02.923Z,14.60
2019-02-11T14:10:33.123Z,14.70
2019-02-11T14:13:03.436Z,14.80
2019-02-11T14:15:32.025Z,14.50
2019-02-11T14:18:11.937Z,14.50
2019-02-11T14:20:35.736Z,14.40
2019-02-11T14:23:04.781Z,14.60
2019-02-11T14:25:45.949Z,14.40
2019-02-11T14:28:03.651Z,14.10
2019-02-11T14:30:32.378Z,14.10
2019-02-11T14:33:00.793Z,13.70
2019-02-11T14:35:29.327Z,13.90
2019-02-11T14:38:01.938Z,14.10
2019-02-11T14:40:28.043Z,14.10
2019-02-11T14:42:56.555Z,14.10
2019-02-11T14:45:26.923Z,14.10
2019-02-11T14:47:55.429Z,14.50
2019-02-11T14:50:23.880Z,14.50
2019-02-11T14:52:52.532Z,14.40
2019-02-11T14:55:21.292Z,14.60
2019-02-11T14:57:49.711Z,14.50
2019-02-11T15:00:22.344Z,14.40
2019-02-11T15:02:51.104Z,14.60
2019-02-11T15:05:19.934Z,14.20
2019-02-11T15:07:48.404Z,14.30
2019-02-11T15:10:17.122Z,14.40
2019-02-11T15:12:45.647Z,14.50
2019-02-11T15:15:15.852Z,14.60
2019-02-11T15:17:45.556Z,13.70
2019-02-11T15:20:15.672Z,13.40
2019-02-11T15:22:45.634Z,14.20
2019-02-11T15:25:17.202Z,13.80
2019-02-11T15:27:48.343Z,13.40
2019-02-11T15:30:20.548Z,13.40
2019-02-11T15:32:49.036Z,12.90
2019-02-11T15:35:17.883Z,13.10
2019-02-11T15:37:46.595Z,12.90
2019-02-11T15:40:21.441Z,13.30
2019-02-11T15:42:49.879Z,13.60
2019-02-11T15:45:19.896Z,13.70
2019-02-11T15:47:48.368Z,13.40
2019-02-11T15:50:17.962Z,12.90
2019-02-11T15:52:46.506Z,12.10
2019-02-11T15:55:19.759Z,13.20
2019-02-11T15:57:48.522Z,12.90
2019-02-11T16:00:21.243Z,12.80
2019-02-11T16:02:51.542Z,13.00
2019-02-11T16:05:20.063Z,13.40
2019-02-11T16:07:48.923Z,13.40
2019-02-11T16:10:19.936Z,13.30
2019-02-11T16:12:51.420Z,13.20
2019-02-11T16:15:20.018Z,13.60
2019-02-11T16:17:48.457Z,13.30
2019-02-11T16:20:17.281Z,13.30
2019-02-11T16:22:45.778Z,13.40
2019-02-11T16:25:15.405Z,13.00
2019-02-11T16:27:46.547Z,13.50
2019-02-11T16:30:18.518Z,13.80
2019-02-11T16:32:47.059Z,13.90
2019-02-11T16:35:17.019Z,14.00
2019-02-11T16:37:45.730Z,14.10
2019-02-11T16:40:24.002Z,14.10
2019-02-11T16:42:55.677Z,14.10
2019-02-11T16:45:25.832Z,14.20
2019-02-11T16:47:54.676Z,14.40
2019-02-11T16:50:23.221Z,14.60
2019-02-11T16:52:53.550Z,14.30
2019-02-11T16:55:23.690Z,13.90
2019-02-11T16:57:52.127Z,14.30
2019-02-11T17:00:23.655Z,13.30
2019-02-11T17:02:52.134Z,13.90
2019-02-11T17:05:20.738Z,13.70
2019-02-11T17:07:49.252Z,13.40
2019-02-11T17:10:17.819Z,14.30
2019-02-11T17:12:47.901Z,13.70
2019-02-11T17:15:17.906Z,14.00
2019-02-11T17:17:46.381Z,13.60
2019-02-11T17:20:16.373Z,13.80
2019-02-11T17:22:45.046Z,14.40
2019-02-11T17:25:14.582Z,14.60
2019-02-11T17:27:43.603Z,14.50
2019-02-11T17:30:18.193Z,14.70
2019-02-11T17:32:46.660Z,14.60
2019-02-11T17:35:17.803Z,14.20
2019-02-11T17:37:46.213Z,14.40
2019-02-11T17:40:14.828Z,14.50
2019-02-11T17:42:43.314Z,14.00
2019-02-11T17:45:19.809Z,13.90
2019-02-11T17:47:48.275Z,14.10
2019-02-11T17:50:16.700Z,14.30
2019-02-11T17:52:45.134Z,14.10
2019-02-11T17:55:14.481Z,13.90
2019-02-11T17:57:42.906Z,13.70
2019-02-11T18:00:16.053Z,13.00
2019-02-11T18:02:44.789Z,13.80
2019-02-11T18:05:13.361Z,13.40
2019-02-11T18:07:41.777Z,13.80
2019-02-11T18:10:10.321Z,13.90
2019-02-11T18:12:38.780Z,13.00
2019-02-11T18:15:10.365Z,13.00
2019-02-11T18:17:38.783Z,12.70
2019-02-11T18:20:09.125Z,11.40
2019-02-11T18:22:37.545Z,11.80
2019-02-11T18:25:08.368Z,11.70
2019-02-11T18:27:36.793Z,11.60
2019-02-11T18:30:08.942Z,11.80
2019-02-11T18:32:37.386Z,11.90
2019-02-11T18:35:09.417Z,12.50
2019-02-11T18:37:37.858Z,12.50
2019-02-11T18:40:11.919Z,13.10
2019-02-11T18:42:40.630Z,12.60
2019-02-11T18:45:14.069Z,11.80
2019-02-11T18:47:42.544Z,11.00
2019-02-11T18:50:15.169Z,11.60
2019-02-11T18:52:43.732Z,11.00
2019-02-11T18:55:13.899Z,11.70
2019-02-11T18:57:42.327Z,11.70
2019-02-11T19:00:14.032Z,11.20
2019-02-11T19:02:42.517Z,12.10
2019-02-11T19:05:10.942Z,12.00
2019-02-11T19:07:39.351Z,11.50
2019-02-11T19:10:10.650Z,11.60
2019-02-11T19:12:39.075Z,12.50
2019-02-11T19:15:15.013Z,11.70
2019-02-11T19:17:43.419Z,11.90
2019-02-11T19:20:13.780Z,12.90
2019-02-11T19:22:42.315Z,12.20
2019-02-11T19:25:11.577Z,11.90
2019-02-11T19:27:40.012Z,10.70
2019-02-11T19:30:14.407Z,11.00
2019-02-11T19:32:42.924Z,11.50
2019-02-11T19:35:11.600Z,11.60
2019-02-11T19:37:40.069Z,11.10
2019-02-11T19:40:11.531Z,13.10
2019-02-11T19:42:39.951Z,12.60
2019-02-11T19:45:14.718Z,12.30
2019-02-11T19:47:43.201Z,12.20
2019-02-11T19:50:13.648Z,11.80
2019-02-11T19:52:42.337Z,11.20
2019-02-11T19:55:12.397Z,11.40
2019-02-11T19:57:40.821Z,11.30
2019-02-11T20:00:12.824Z,11.10
2019-02-11T20:02:41.262Z,10.80
2019-02-11T20:05:10.712Z,11.40
2019-02-11T20:07:41.144Z,11.70
2019-02-11T20:10:19.009Z,11.60
2019-02-11T20:12:47.900Z,11.20
2019-02-11T20:15:21.397Z,10.50
2019-02-11T20:17:49.911Z,10.50
2019-02-11T20:20:20.127Z,11.30
2019-02-11T20:22:48.535Z,11.50
2019-02-11T20:25:16.961Z,11.50
2019-02-11T20:27:49.928Z,11.80
2019-02-11T20:30:25.414Z,11.80
2019-02-11T20:32:53.980Z,11.60
2019-02-11T20:35:22.539Z,11.40
2019-02-11T20:37:50.952Z,11.10
2019-02-11T20:40:24.955Z,11.30
2019-02-11T20:42:53.430Z,11.40
2019-02-11T20:45:26.985Z,10.80
2019-02-11T20:47:58.588Z,9.80
2019-02-11T20:50:27.044Z,10.00
2019-02-11T20:52:55.519Z,11.10
2019-02-11T20:55:24.171Z,10.90
2019-02-11T20:57:58.145Z,10.60
2019-02-11T21:00:26.848Z,10.50
2019-02-11T21:02:55.545Z,9.70
2019-02-11T21:05:24.276Z,9.90
2019-02-11T21:07:52.960Z,9.90
2019-02-11T21:10:23.579Z,10.40
2019-02-11T21:12:52.029Z,10.20
2019-02-11T21:15:20.498Z,11.50
2019-02-11T21:17:48.958Z,11.00
2019-02-11T21:20:26.587Z,10.70
2019-02-11T21:22:55.020Z,9.60
2019-02-11T21:25:23.422Z,9.50
2019-02-11T21:27:51.853Z,10.10
2019-02-11T21:30:21.209Z,10.00
2019-02-11T21:32:49.833Z,9.80
2019-02-11T21:35:18.353Z,10.90
2019-02-11T21:37:46.961Z,10.80
2019-02-11T21:40:15.461Z,10.10
2019-02-11T21:42:44.647Z,9.60
2019-02-11T21:45:14.337Z,9.80
2019-02-11T21:47:42.858Z,9.40
2019-02-11T21:50:26.309Z,8.90
2019-02-11T21:52:49.079Z,9.60
2019-02-11T21:55:19.441Z,9.10
2019-02-11T21:57:48.108Z,8.70
2019-02-11T22:00:19.070Z,9.60
2019-02-11T22:02:47.863Z,10.40
2019-02-11T22:05:16.631Z,10.70
2019-02-11T22:07:45.140Z,10.10
2019-02-11T22:10:15.739Z,10.00
2019-02-11T22:12:44.596Z,9.50
2019-02-11T22:15:14.280Z,10.20
2019-02-11T22:17:42.788Z,10.40
2019-02-11T22:20:13.814Z,10.30
2019-02-11T22:22:42.368Z,10.20
2019-02-11T22:25:12.175Z,10.50
2019-02-11T22:27:40.646Z,10.00
2019-02-11T22:30:15.445Z,11.30
2019-02-11T22:32:43.937Z,10.00
2019-02-11T22:35:12.546Z,10.00
2019-02-11T22:37:41.150Z,11.30
2019-02-11T22:40:14.253Z,10.70
2019-02-11T22:42:42.755Z,10.90
2019-02-11T22:45:16.898Z,10.50
2019-02-11T22:47:49.053Z,10.20
2019-02-11T22:50:20.656Z,9.90
2019-02-11T22:52:50.777Z,10.70
2019-02-11T22:55:21.201Z,10.20
2019-02-11T22:57:52.388Z,10.00
2019-02-11T23:00:48.896Z,9.70
2019-02-11T23:03:21.681Z,9.90
2019-02-11T23:05:50.252Z,9.40
2019-02-11T23:08:20.324Z,11.40
2019-02-11T23:10:48.842Z,10.70
2019-02-11T23:13:18.820Z,9.80
2019-02-11T23:15:48.908Z,9.80
2019-02-11T23:18:17.665Z,10.70
2019-02-11T23:20:52.000Z,10.20
2019-02-11T23:23:16.378Z,10.60
2019-02-11T23:25:45.675Z,11.10
2019-02-11T23:28:14.320Z,10.30
2019-02-11T23:30:42.965Z,9.60
2019-02-11T23:33:12.633Z,9.90
2019-02-11T23:35:41.221Z,9.50
2019-02-11T23:38:11.468Z,9.40
2019-02-11T23:40:41.810Z,8.90
2019-02-11T23:43:10.410Z,9.50
2019-02-11T23:45:38.968Z,9.20
2019-02-11T23:48:07.521Z,9.00
2019-02-11T23:50:37.737Z,9.90
2019-02-11T23:53:06.317Z,10.10
2019-02-11T23:55:34.954Z,10.00
2019-02-11T23:58:03.446Z,9.70
